sensor_id;sensor_type;location;lat;lon;timestamp;temperature;humidity
5697;DHT22;2873;50.966;7.210;2023-06-10T00:01:29;22.10;99.90
5697;DHT22;2873;50.966;7.210;2023-06-10T00:03:55;22.00;99.90
5697;DHT22;2873;50.966;7.210;2023-06-10T00:06:21;21.90;99.90
5697;DHT22;2873;50.966;7.210;2023-06-10T00:08:50;21.80;99.90
5697;DHT22;2873;50.966;7.210;2023-06-10T00:11:15;21.80;99.90
5697;DHT22;2873;50.966;7.210;2023-06-10T00:13:41;21.70;99.90
5697;DHT22;2873;50.966;7.210;2023-06-10T00:16:06;21.70;99.90
5697;DHT22;2873;50.966;7.210;2023-06-10T00:18:32;21.70;99.90
5697;DHT22;2873;50.966;7.210;2023-06-10T00:20:58;21.80;99.90
5697;DHT22;2873;50.966;7.210;2023-06-10T00:23:29;21.60;99.90
5697;DHT22;2873;50.966;7.210;2023-06-10T00:25:59;21.60;99.90
5697;DHT22;2873;50.966;7.210;2023-06-10T00:28:25;21.60;99.90
5697;DHT22;2873;50.966;7.210;2023-06-10T00:30:51;21.60;99.90
5697;DHT22;2873;50.966;7.210;2023-06-10T00:33:16;21.60;99.90
5697;DHT22;2873;50.966;7.210;2023-06-10T00:35:42;21.50;99.90
5697;DHT22;2873;50.966;7.210;2023-06-10T00:38:07;21.70;99.90
5697;DHT22;2873;50.966;7.210;2023-06-10T00:40:39;21.50;99.90
5697;DHT22;2873;50.966;7.210;2023-06-10T00:43:05;21.40;99.90
5697;DHT22;2873;50.966;7.210;2023-06-10T00:45:30;21.40;99.90
5697;DHT22;2873;50.966;7.210;2023-06-10T00:47:56;21.40;99.90
5697;DHT22;2873;50.966;7.210;2023-06-10T00:50:22;21.40;99.90
5697;DHT22;2873;50.966;7.210;2023-06-10T00:52:47;21.40;99.90
5697;DHT22;2873;50.966;7.210;2023-06-10T00:55:16;21.30;99.90
5697;DHT22;2873;50.966;7.210;2023-06-10T00:57:42;21.30;99.90
5697;DHT22;2873;50.966;7.210;2023-06-10T01:00:10;21.40;99.90
5697;DHT22;2873;50.966;7.210;2023-06-10T01:02:37;21.30;99.90
5697;DHT22;2873;50.966;7.210;2023-06-10T01:05:03;21.20;99.90
5697;DHT22;2873;50.966;7.210;2023-06-10T01:10:17;21.20;99.90
5697;DHT22;2873;50.966;7.210;2023-06-10T01:12:59;21.20;99.90
5697;DHT22;2873;50.966;7.210;2023-06-10T01:15:31;21.20;99.90
5697;DHT22;2873;50.966;7.210;2023-06-10T01:18:01;21.20;99.90
5697;DHT22;2873;50.966;7.210;2023-06-10T01:20:32;21.10;99.90
5697;DHT22;2873;50.966;7.210;2023-06-10T01:22:58;21.10;99.90
5697;DHT22;2873;50.966;7.210;2023-06-10T01:25:25;21.10;99.90
5697;DHT22;2873;50.966;7.210;2023-06-10T01:28:02;21.00;99.90
5697;DHT22;2873;50.966;7.210;2023-06-10T01:30:32;21.00;99.90
5697;DHT22;2873;50.966;7.210;2023-06-10T01:33:03;21.00;99.90
5697;DHT22;2873;50.966;7.210;2023-06-10T01:35:32;20.90;99.90
5697;DHT22;2873;50.966;7.210;2023-06-10T01:38:00;20.90;99.90
5697;DHT22;2873;50.966;7.210;2023-06-10T01:40:26;21.00;99.90
5697;DHT22;2873;50.966;7.210;2023-06-10T01:42:53;20.90;99.90
5697;DHT22;2873;50.966;7.210;2023-06-10T01:45:19;20.80;99.90
5697;DHT22;2873;50.966;7.210;2023-06-10T01:47:45;20.80;99.90
5697;DHT22;2873;50.966;7.210;2023-06-10T01:50:10;20.70;99.90
5697;DHT22;2873;50.966;7.210;2023-06-10T01:52:36;20.70;99.90
5697;DHT22;2873;50.966;7.210;2023-06-10T01:55:02;20.70;99.90
5697;DHT22;2873;50.966;7.210;2023-06-10T01:57:28;20.70;99.90
5697;DHT22;2873;50.966;7.210;2023-06-10T01:59:54;20.60;99.90
5697;DHT22;2873;50.966;7.210;2023-06-10T02:02:19;20.70;99.90
5697;DHT22;2873;50.966;7.210;2023-06-10T02:04:47;20.70;99.90
5697;DHT22;2873;50.966;7.210;2023-06-10T02:07:14;20.70;99.90
5697;DHT22;2873;50.966;7.210;2023-06-10T02:09:40;20.70;99.90
5697;DHT22;2873;50.966;7.210;2023-06-10T02:12:06;20.70;99.90
5697;DHT22;2873;50.966;7.210;2023-06-10T02:14:32;20.70;99.90
5697;DHT22;2873;50.966;7.210;2023-06-10T02:16:58;20.60;99.90
5697;DHT22;2873;50.966;7.210;2023-06-10T02:19:24;20.60;99.90
5697;DHT22;2873;50.966;7.210;2023-06-10T02:21:52;20.60;99.90
5697;DHT22;2873;50.966;7.210;2023-06-10T02:24:17;20.60;99.90
5697;DHT22;2873;50.966;7.210;2023-06-10T02:26:43;20.60;99.90
5697;DHT22;2873;50.966;7.210;2023-06-10T02:29:08;20.50;99.90
5697;DHT22;2873;50.966;7.210;2023-06-10T02:31:34;20.60;99.90
5697;DHT22;2873;50.966;7.210;2023-06-10T02:34:01;20.50;99.90
5697;DHT22;2873;50.966;7.210;2023-06-10T02:36:27;20.60;99.90
5697;DHT22;2873;50.966;7.210;2023-06-10T02:38:53;20.40;99.90
5697;DHT22;2873;50.966;7.210;2023-06-10T02:41:18;20.40;99.90
5697;DHT22;2873;50.966;7.210;2023-06-10T02:43:44;20.40;99.90
5697;DHT22;2873;50.966;7.210;2023-06-10T02:46:10;20.40;99.90
5697;DHT22;2873;50.966;7.210;2023-06-10T02:48:42;20.50;99.90
5697;DHT22;2873;50.966;7.210;2023-06-10T02:51:11;20.40;99.90
5697;DHT22;2873;50.966;7.210;2023-06-10T02:53:37;20.40;99.90
5697;DHT22;2873;50.966;7.210;2023-06-10T02:56:03;20.40;99.90
5697;DHT22;2873;50.966;7.210;2023-06-10T02:58:28;20.40;99.90
5697;DHT22;2873;50.966;7.210;2023-06-10T03:00:54;20.40;99.90
5697;DHT22;2873;50.966;7.210;2023-06-10T03:03:20;20.40;99.90
5697;DHT22;2873;50.966;7.210;2023-06-10T03:05:47;20.30;99.90
5697;DHT22;2873;50.966;7.210;2023-06-10T03:08:13;20.40;99.90
5697;DHT22;2873;50.966;7.210;2023-06-10T03:10:39;20.30;99.90
5697;DHT22;2873;50.966;7.210;2023-06-10T03:13:04;20.30;99.90
5697;DHT22;2873;50.966;7.210;2023-06-10T03:15:30;20.30;99.90
5697;DHT22;2873;50.966;7.210;2023-06-10T03:18:00;20.30;99.90
5697;DHT22;2873;50.966;7.210;2023-06-10T03:20:27;20.30;99.90
5697;DHT22;2873;50.966;7.210;2023-06-10T03:22:54;20.40;99.90
5697;DHT22;2873;50.966;7.210;2023-06-10T03:25:19;20.40;99.90
5697;DHT22;2873;50.966;7.210;2023-06-10T03:27:46;20.40;99.90
5697;DHT22;2873;50.966;7.210;2023-06-10T03:30:13;20.40;99.90
5697;DHT22;2873;50.966;7.210;2023-06-10T03:32:39;20.40;99.90
5697;DHT22;2873;50.966;7.210;2023-06-10T03:35:06;20.40;99.90
5697;DHT22;2873;50.966;7.210;2023-06-10T03:37:32;20.40;99.90
5697;DHT22;2873;50.966;7.210;2023-06-10T03:39:58;20.40;99.90
5697;DHT22;2873;50.966;7.210;2023-06-10T03:42:23;20.50;99.90
5697;DHT22;2873;50.966;7.210;2023-06-10T03:44:49;20.50;99.90
5697;DHT22;2873;50.966;7.210;2023-06-10T03:47:14;20.50;99.90
5697;DHT22;2873;50.966;7.210;2023-06-10T03:49:40;20.50;99.90
5697;DHT22;2873;50.966;7.210;2023-06-10T03:52:06;20.50;99.90
5697;DHT22;2873;50.966;7.210;2023-06-10T03:54:32;20.50;99.90
5697;DHT22;2873;50.966;7.210;2023-06-10T03:56:59;20.50;99.90
5697;DHT22;2873;50.966;7.210;2023-06-10T03:59:25;20.50;99.90
5697;DHT22;2873;50.966;7.210;2023-06-10T04:01:51;20.50;99.90
5697;DHT22;2873;50.966;7.210;2023-06-10T04:04:16;20.50;99.90
5697;DHT22;2873;50.966;7.210;2023-06-10T04:06:42;20.50;99.90
5697;DHT22;2873;50.966;7.210;2023-06-10T04:09:09;20.50;99.90
5697;DHT22;2873;50.966;7.210;2023-06-10T04:11:35;20.40;99.90
5697;DHT22;2873;50.966;7.210;2023-06-10T04:14:01;20.50;99.90
5697;DHT22;2873;50.966;7.210;2023-06-10T04:16:27;20.50;99.90
5697;DHT22;2873;50.966;7.210;2023-06-10T04:18:53;20.50;99.90
5697;DHT22;2873;50.966;7.210;2023-06-10T04:21:18;20.50;99.90
5697;DHT22;2873;50.966;7.210;2023-06-10T04:23:44;20.50;99.90
5697;DHT22;2873;50.966;7.210;2023-06-10T04:26:09;20.50;99.90
5697;DHT22;2873;50.966;7.210;2023-06-10T04:28:37;20.60;99.90
5697;DHT22;2873;50.966;7.210;2023-06-10T04:31:03;20.60;99.90
5697;DHT22;2873;50.966;7.210;2023-06-10T04:33:30;20.60;99.90
5697;DHT22;2873;50.966;7.210;2023-06-10T04:35:56;20.80;99.90
5697;DHT22;2873;50.966;7.210;2023-06-10T04:38:21;20.70;99.90
5697;DHT22;2873;50.966;7.210;2023-06-10T04:40:47;20.70;99.90
5697;DHT22;2873;50.966;7.210;2023-06-10T04:43:13;20.80;99.90
5697;DHT22;2873;50.966;7.210;2023-06-10T04:45:38;20.80;99.90
5697;DHT22;2873;50.966;7.210;2023-06-10T04:48:05;20.80;99.90
5697;DHT22;2873;50.966;7.210;2023-06-10T04:50:30;20.80;99.90
5697;DHT22;2873;50.966;7.210;2023-06-10T04:52:58;20.80;99.90
5697;DHT22;2873;50.966;7.210;2023-06-10T04:55:24;20.90;99.90
5697;DHT22;2873;50.966;7.210;2023-06-10T04:57:50;20.90;99.90
5697;DHT22;2873;50.966;7.210;2023-06-10T05:00:17;20.90;99.90
5697;DHT22;2873;50.966;7.210;2023-06-10T05:02:42;20.90;99.90
5697;DHT22;2873;50.966;7.210;2023-06-10T05:05:08;21.00;99.90
5697;DHT22;2873;50.966;7.210;2023-06-10T05:07:33;21.10;99.90
5697;DHT22;2873;50.966;7.210;2023-06-10T05:09:59;21.10;99.90
5697;DHT22;2873;50.966;7.210;2023-06-10T05:12:26;21.10;99.90
5697;DHT22;2873;50.966;7.210;2023-06-10T05:14:51;21.20;99.90
5697;DHT22;2873;50.966;7.210;2023-06-10T05:17:17;21.20;99.90
5697;DHT22;2873;50.966;7.210;2023-06-10T05:19:43;21.30;99.90
5697;DHT22;2873;50.966;7.210;2023-06-10T05:22:09;21.20;99.90
5697;DHT22;2873;50.966;7.210;2023-06-10T05:24:34;21.30;99.90
5697;DHT22;2873;50.966;7.210;2023-06-10T05:27:00;21.40;99.90
5697;DHT22;2873;50.966;7.210;2023-06-10T05:29:25;21.40;99.90
5697;DHT22;2873;50.966;7.210;2023-06-10T05:31:51;21.50;99.90
5697;DHT22;2873;50.966;7.210;2023-06-10T05:34:17;21.60;99.90
5697;DHT22;2873;50.966;7.210;2023-06-10T05:36:43;21.50;99.90
5697;DHT22;2873;50.966;7.210;2023-06-10T05:39:09;21.50;99.90
5697;DHT22;2873;50.966;7.210;2023-06-10T05:41:35;21.60;99.90
5697;DHT22;2873;50.966;7.210;2023-06-10T05:44:01;21.80;99.90
5697;DHT22;2873;50.966;7.210;2023-06-10T05:46:26;21.70;99.90
5697;DHT22;2873;50.966;7.210;2023-06-10T05:48:52;21.70;99.90
5697;DHT22;2873;50.966;7.210;2023-06-10T05:51:17;21.70;99.90
5697;DHT22;2873;50.966;7.210;2023-06-10T05:53:43;21.80;99.90
5697;DHT22;2873;50.966;7.210;2023-06-10T05:56:08;21.80;99.90
5697;DHT22;2873;50.966;7.210;2023-06-10T05:58:34;21.90;99.90
5697;DHT22;2873;50.966;7.210;2023-06-10T06:01:00;22.00;99.90
5697;DHT22;2873;50.966;7.210;2023-06-10T06:03:28;22.00;99.90
5697;DHT22;2873;50.966;7.210;2023-06-10T06:05:54;22.00;99.90
5697;DHT22;2873;50.966;7.210;2023-06-10T06:08:19;22.10;99.90
5697;DHT22;2873;50.966;7.210;2023-06-10T06:10:45;22.20;99.90
5697;DHT22;2873;50.966;7.210;2023-06-10T06:13:11;22.20;99.90
5697;DHT22;2873;50.966;7.210;2023-06-10T06:15:36;22.30;99.90
5697;DHT22;2873;50.966;7.210;2023-06-10T06:18:02;22.40;99.90
5697;DHT22;2873;50.966;7.210;2023-06-10T06:20:28;22.50;99.90
5697;DHT22;2873;50.966;7.210;2023-06-10T06:22:54;22.50;99.90
5697;DHT22;2873;50.966;7.210;2023-06-10T06:25:20;22.60;99.90
5697;DHT22;2873;50.966;7.210;2023-06-10T06:27:45;22.50;99.90
5697;DHT22;2873;50.966;7.210;2023-06-10T06:30:11;22.80;99.90
5697;DHT22;2873;50.966;7.210;2023-06-10T06:32:37;22.80;99.90
5697;DHT22;2873;50.966;7.210;2023-06-10T06:35:02;22.90;99.90
5697;DHT22;2873;50.966;7.210;2023-06-10T06:37:30;23.00;99.90
5697;DHT22;2873;50.966;7.210;2023-06-10T06:39:55;23.10;99.90
5697;DHT22;2873;50.966;7.210;2023-06-10T06:42:21;23.10;99.90
5697;DHT22;2873;50.966;7.210;2023-06-10T06:44:46;23.10;99.90
5697;DHT22;2873;50.966;7.210;2023-06-10T06:47:13;23.30;99.90
5697;DHT22;2873;50.966;7.210;2023-06-10T06:49:38;23.30;99.90
5697;DHT22;2873;50.966;7.210;2023-06-10T06:52:04;23.50;99.90
5697;DHT22;2873;50.966;7.210;2023-06-10T06:54:31;23.50;99.90
5697;DHT22;2873;50.966;7.210;2023-06-10T06:56:57;23.50;99.90
5697;DHT22;2873;50.966;7.210;2023-06-10T06:59:22;23.60;99.90
5697;DHT22;2873;50.966;7.210;2023-06-10T07:01:49;23.70;99.90
5697;DHT22;2873;50.966;7.210;2023-06-10T07:04:15;23.70;99.90
5697;DHT22;2873;50.966;7.210;2023-06-10T07:06:41;23.80;99.90
5697;DHT22;2873;50.966;7.210;2023-06-10T07:09:07;23.90;99.90
5697;DHT22;2873;50.966;7.210;2023-06-10T07:11:34;23.90;99.90
5697;DHT22;2873;50.966;7.210;2023-06-10T07:14:00;24.00;99.90
5697;DHT22;2873;50.966;7.210;2023-06-10T07:16:25;24.00;99.90
5697;DHT22;2873;50.966;7.210;2023-06-10T07:18:52;24.10;99.90
5697;DHT22;2873;50.966;7.210;2023-06-10T07:21:17;24.30;99.90
5697;DHT22;2873;50.966;7.210;2023-06-10T07:23:43;24.30;99.90
5697;DHT22;2873;50.966;7.210;2023-06-10T07:26:10;24.30;99.90
5697;DHT22;2873;50.966;7.210;2023-06-10T07:28:37;24.30;99.90
5697;DHT22;2873;50.966;7.210;2023-06-10T07:31:03;24.40;99.90
5697;DHT22;2873;50.966;7.210;2023-06-10T07:33:29;24.50;99.90
5697;DHT22;2873;50.966;7.210;2023-06-10T07:35:54;24.60;99.90
5697;DHT22;2873;50.966;7.210;2023-06-10T07:38:20;24.60;99.90
5697;DHT22;2873;50.966;7.210;2023-06-10T07:40:46;24.60;99.90
5697;DHT22;2873;50.966;7.210;2023-06-10T07:43:11;24.70;99.90
5697;DHT22;2873;50.966;7.210;2023-06-10T07:45:39;24.80;99.90
5697;DHT22;2873;50.966;7.210;2023-06-10T07:48:05;24.80;99.90
5697;DHT22;2873;50.966;7.210;2023-06-10T07:50:31;24.90;99.90
5697;DHT22;2873;50.966;7.210;2023-06-10T07:52:56;24.90;99.90
5697;DHT22;2873;50.966;7.210;2023-06-10T07:55:22;24.90;99.90
5697;DHT22;2873;50.966;7.210;2023-06-10T07:57:47;25.00;99.90
5697;DHT22;2873;50.966;7.210;2023-06-10T08:00:13;25.10;99.90
5697;DHT22;2873;50.966;7.210;2023-06-10T08:02:39;25.20;99.90
5697;DHT22;2873;50.966;7.210;2023-06-10T08:05:05;25.30;99.90
5697;DHT22;2873;50.966;7.210;2023-06-10T08:07:31;25.40;99.90
5697;DHT22;2873;50.966;7.210;2023-06-10T08:09:57;25.40;99.90
5697;DHT22;2873;50.966;7.210;2023-06-10T08:12:23;25.50;99.90
5697;DHT22;2873;50.966;7.210;2023-06-10T08:14:48;25.50;99.90
5697;DHT22;2873;50.966;7.210;2023-06-10T08:17:14;25.60;99.90
5697;DHT22;2873;50.966;7.210;2023-06-10T08:19:39;25.70;99.90
5697;DHT22;2873;50.966;7.210;2023-06-10T08:22:05;25.90;99.90
5697;DHT22;2873;50.966;7.210;2023-06-10T08:24:31;25.90;99.90
5697;DHT22;2873;50.966;7.210;2023-06-10T08:26:56;26.00;99.90
5697;DHT22;2873;50.966;7.210;2023-06-10T08:29:23;26.00;99.90
5697;DHT22;2873;50.966;7.210;2023-06-10T08:31:49;26.00;99.90
5697;DHT22;2873;50.966;7.210;2023-06-10T08:34:14;26.10;99.90
5697;DHT22;2873;50.966;7.210;2023-06-10T08:36:40;26.10;99.90
5697;DHT22;2873;50.966;7.210;2023-06-10T08:39:06;26.20;99.90
5697;DHT22;2873;50.966;7.210;2023-06-10T08:41:35;26.30;99.90
5697;DHT22;2873;50.966;7.210;2023-06-10T08:44:16;26.40;99.90
5697;DHT22;2873;50.966;7.210;2023-06-10T08:46:45;26.40;99.90
5697;DHT22;2873;50.966;7.210;2023-06-10T08:49:17;26.50;99.90
5697;DHT22;2873;50.966;7.210;2023-06-10T08:51:43;26.50;99.90
5697;DHT22;2873;50.966;7.210;2023-06-10T08:54:18;26.60;99.90
5697;DHT22;2873;50.966;7.210;2023-06-10T08:56:49;26.70;99.90
5697;DHT22;2873;50.966;7.210;2023-06-10T08:59:17;26.70;99.90
5697;DHT22;2873;50.966;7.210;2023-06-10T09:01:44;26.80;99.90
5697;DHT22;2873;50.966;7.210;2023-06-10T09:04:10;26.80;99.90
5697;DHT22;2873;50.966;7.210;2023-06-10T09:06:37;26.90;99.90
5697;DHT22;2873;50.966;7.210;2023-06-10T09:09:05;27.00;99.90
5697;DHT22;2873;50.966;7.210;2023-06-10T09:11:31;27.10;99.90
5697;DHT22;2873;50.966;7.210;2023-06-10T09:13:57;27.10;99.90
5697;DHT22;2873;50.966;7.210;2023-06-10T09:16:24;27.30;99.90
5697;DHT22;2873;50.966;7.210;2023-06-10T09:18:50;27.40;99.90
5697;DHT22;2873;50.966;7.210;2023-06-10T09:21:22;27.50;99.90
5697;DHT22;2873;50.966;7.210;2023-06-10T09:23:47;27.50;99.90
5697;DHT22;2873;50.966;7.210;2023-06-10T09:26:13;27.50;99.90
5697;DHT22;2873;50.966;7.210;2023-06-10T09:28:39;27.60;99.90
5697;DHT22;2873;50.966;7.210;2023-06-10T09:31:06;27.80;99.90
5697;DHT22;2873;50.966;7.210;2023-06-10T09:33:38;27.90;99.90
5697;DHT22;2873;50.966;7.210;2023-06-10T09:36:07;27.90;99.90
5697;DHT22;2873;50.966;7.210;2023-06-10T09:38:34;28.10;99.90
5697;DHT22;2873;50.966;7.210;2023-06-10T09:41:00;28.10;99.90
5697;DHT22;2873;50.966;7.210;2023-06-10T09:43:43;28.00;99.90
5697;DHT22;2873;50.966;7.210;2023-06-10T09:48:43;28.00;99.30
5697;DHT22;2873;50.966;7.210;2023-06-10T09:51:10;28.10;99.30
5697;DHT22;2873;50.966;7.210;2023-06-10T09:53:36;28.20;99.20
5697;DHT22;2873;50.966;7.210;2023-06-10T09:56:02;28.30;98.60
5697;DHT22;2873;50.966;7.210;2023-06-10T09:58:36;28.30;99.00
5697;DHT22;2873;50.966;7.210;2023-06-10T10:01:09;28.50;99.00
5697;DHT22;2873;50.966;7.210;2023-06-10T10:06:12;28.90;97.50
5697;DHT22;2873;50.966;7.210;2023-06-10T10:08:38;29.00;97.10
5697;DHT22;2873;50.966;7.210;2023-06-10T10:11:03;29.20;96.90
5697;DHT22;2873;50.966;7.210;2023-06-10T10:13:33;29.40;95.60
5697;DHT22;2873;50.966;7.210;2023-06-10T10:16:03;29.40;95.70
5697;DHT22;2873;50.966;7.210;2023-06-10T10:18:31;29.50;94.60
5697;DHT22;2873;50.966;7.210;2023-06-10T10:21:00;29.50;94.60
5697;DHT22;2873;50.966;7.210;2023-06-10T10:23:39;29.50;93.90
5697;DHT22;2873;50.966;7.210;2023-06-10T10:26:10;29.20;92.40
5697;DHT22;2873;50.966;7.210;2023-06-10T10:28:45;29.30;93.10
5697;DHT22;2873;50.966;7.210;2023-06-10T10:31:15;29.50;93.60
5697;DHT22;2873;50.966;7.210;2023-06-10T10:33:51;29.60;92.90
5697;DHT22;2873;50.966;7.210;2023-06-10T10:36:19;29.60;93.20
5697;DHT22;2873;50.966;7.210;2023-06-10T10:38:47;29.30;92.70
5697;DHT22;2873;50.966;7.210;2023-06-10T10:41:15;29.60;92.60
5697;DHT22;2873;50.966;7.210;2023-06-10T10:43:43;29.70;92.50
5697;DHT22;2873;50.966;7.210;2023-06-10T10:46:16;30.00;91.90
5697;DHT22;2873;50.966;7.210;2023-06-10T10:48:43;29.70;92.10
5697;DHT22;2873;50.966;7.210;2023-06-10T10:51:10;29.70;91.60
5697;DHT22;2873;50.966;7.210;2023-06-10T10:53:39;29.70;91.30
5697;DHT22;2873;50.966;7.210;2023-06-10T10:56:06;30.00;92.20
5697;DHT22;2873;50.966;7.210;2023-06-10T10:58:33;30.20;92.40
5697;DHT22;2873;50.966;7.210;2023-06-10T11:00:59;29.70;91.60
5697;DHT22;2873;50.966;7.210;2023-06-10T11:03:28;30.00;91.10
5697;DHT22;2873;50.966;7.210;2023-06-10T11:05:58;30.30;90.80
5697;DHT22;2873;50.966;7.210;2023-06-10T11:10:58;30.70;90.70
5697;DHT22;2873;50.966;7.210;2023-06-10T11:13:26;30.90;91.60
5697;DHT22;2873;50.966;7.210;2023-06-10T11:15:53;30.70;90.50
5697;DHT22;2873;50.966;7.210;2023-06-10T11:18:40;30.40;89.30
5697;DHT22;2873;50.966;7.210;2023-06-10T11:21:06;30.30;90.00
5697;DHT22;2873;50.966;7.210;2023-06-10T11:23:32;30.30;89.70
5697;DHT22;2873;50.966;7.210;2023-06-10T11:26:21;30.50;91.10
5697;DHT22;2873;50.966;7.210;2023-06-10T11:31:28;30.70;90.80
5697;DHT22;2873;50.966;7.210;2023-06-10T11:33:56;30.90;90.10
5697;DHT22;2873;50.966;7.210;2023-06-10T11:36:23;30.90;88.50
5697;DHT22;2873;50.966;7.210;2023-06-10T11:38:50;30.90;88.60
5697;DHT22;2873;50.966;7.210;2023-06-10T11:41:18;31.10;89.20
5697;DHT22;2873;50.966;7.210;2023-06-10T11:43:47;31.10;89.00
5697;DHT22;2873;50.966;7.210;2023-06-10T11:46:14;31.00;87.70
5697;DHT22;2873;50.966;7.210;2023-06-10T11:48:51;30.90;87.80
5697;DHT22;2873;50.966;7.210;2023-06-10T11:51:17;31.10;87.00
5697;DHT22;2873;50.966;7.210;2023-06-10T11:53:46;30.90;86.60
5697;DHT22;2873;50.966;7.210;2023-06-10T11:56:12;31.00;86.90
5697;DHT22;2873;50.966;7.210;2023-06-10T11:58:42;31.20;86.50
5697;DHT22;2873;50.966;7.210;2023-06-10T12:01:09;31.20;88.60
5697;DHT22;2873;50.966;7.210;2023-06-10T12:03:38;31.40;88.20
5697;DHT22;2873;50.966;7.210;2023-06-10T12:06:05;31.60;87.20
5697;DHT22;2873;50.966;7.210;2023-06-10T12:08:32;31.70;86.40
5697;DHT22;2873;50.966;7.210;2023-06-10T12:10:58;31.90;87.20
5697;DHT22;2873;50.966;7.210;2023-06-10T12:13:28;31.90;85.60
5697;DHT22;2873;50.966;7.210;2023-06-10T12:15:54;32.10;86.50
5697;DHT22;2873;50.966;7.210;2023-06-10T12:18:21;32.30;87.60
5697;DHT22;2873;50.966;7.210;2023-06-10T12:20:47;32.40;87.20
5697;DHT22;2873;50.966;7.210;2023-06-10T12:23:15;32.60;86.30
5697;DHT22;2873;50.966;7.210;2023-06-10T12:25:52;32.70;82.80
5697;DHT22;2873;50.966;7.210;2023-06-10T12:28:26;32.90;84.50
5697;DHT22;2873;50.966;7.210;2023-06-10T12:31:06;32.90;84.40
5697;DHT22;2873;50.966;7.210;2023-06-10T12:33:32;32.70;84.80
5697;DHT22;2873;50.966;7.210;2023-06-10T12:35:57;32.50;84.80
5697;DHT22;2873;50.966;7.210;2023-06-10T12:38:26;32.30;81.90
5697;DHT22;2873;50.966;7.210;2023-06-10T12:41:01;32.10;80.20
5697;DHT22;2873;50.966;7.210;2023-06-10T12:43:31;31.90;78.80
5697;DHT22;2873;50.966;7.210;2023-06-10T12:46:08;31.70;78.40
5697;DHT22;2873;50.966;7.210;2023-06-10T12:48:34;31.80;81.50
5697;DHT22;2873;50.966;7.210;2023-06-10T12:51:00;32.00;84.40
5697;DHT22;2873;50.966;7.210;2023-06-10T12:53:26;32.00;82.70
5697;DHT22;2873;50.966;7.210;2023-06-10T12:55:52;32.00;82.80
5697;DHT22;2873;50.966;7.210;2023-06-10T12:58:19;31.90;83.40
5697;DHT22;2873;50.966;7.210;2023-06-10T13:00:45;31.90;81.70
5697;DHT22;2873;50.966;7.210;2023-06-10T13:03:11;31.90;80.40
5697;DHT22;2873;50.966;7.210;2023-06-10T13:05:37;32.10;81.20
5697;DHT22;2873;50.966;7.210;2023-06-10T13:08:05;32.30;80.00
5697;DHT22;2873;50.966;7.210;2023-06-10T13:10:30;32.50;80.00
5697;DHT22;2873;50.966;7.210;2023-06-10T13:12:56;32.60;78.60
5697;DHT22;2873;50.966;7.210;2023-06-10T13:15:22;32.80;76.40
5697;DHT22;2873;50.966;7.210;2023-06-10T13:17:48;32.70;76.20
5697;DHT22;2873;50.966;7.210;2023-06-10T13:20:15;32.70;76.10
5697;DHT22;2873;50.966;7.210;2023-06-10T13:22:42;32.80;77.10
5697;DHT22;2873;50.966;7.210;2023-06-10T13:25:08;32.70;74.80
5697;DHT22;2873;50.966;7.210;2023-06-10T13:27:35;32.60;76.90
5697;DHT22;2873;50.966;7.210;2023-06-10T13:30:01;32.30;76.80
5697;DHT22;2873;50.966;7.210;2023-06-10T13:32:27;32.50;78.90
5697;DHT22;2873;50.966;7.210;2023-06-10T13:34:52;32.30;78.80
5697;DHT22;2873;50.966;7.210;2023-06-10T13:37:22;32.30;78.90
5697;DHT22;2873;50.966;7.210;2023-06-10T13:39:49;32.40;76.40
5697;DHT22;2873;50.966;7.210;2023-06-10T13:42:19;32.50;77.90
5697;DHT22;2873;50.966;7.210;2023-06-10T13:44:45;32.40;78.10
5697;DHT22;2873;50.966;7.210;2023-06-10T13:47:13;32.10;78.30
5697;DHT22;2873;50.966;7.210;2023-06-10T13:49:38;32.20;79.50
5697;DHT22;2873;50.966;7.210;2023-06-10T13:52:05;32.30;79.40
5697;DHT22;2873;50.966;7.210;2023-06-10T13:54:31;32.30;78.80
5697;DHT22;2873;50.966;7.210;2023-06-10T13:56:57;32.20;77.90
5697;DHT22;2873;50.966;7.210;2023-06-10T13:59:23;32.10;77.60
5697;DHT22;2873;50.966;7.210;2023-06-10T14:01:48;32.10;78.20
5697;DHT22;2873;50.966;7.210;2023-06-10T14:04:14;32.10;79.60
5697;DHT22;2873;50.966;7.210;2023-06-10T14:06:39;31.90;80.60
5697;DHT22;2873;50.966;7.210;2023-06-10T14:09:05;32.00;80.90
5697;DHT22;2873;50.966;7.210;2023-06-10T14:11:31;31.80;81.90
5697;DHT22;2873;50.966;7.210;2023-06-10T14:13:56;31.80;82.10
5697;DHT22;2873;50.966;7.210;2023-06-10T14:16:23;31.80;83.50
5697;DHT22;2873;50.966;7.210;2023-06-10T14:18:49;31.80;85.30
5697;DHT22;2873;50.966;7.210;2023-06-10T14:21:16;32.00;84.80
5697;DHT22;2873;50.966;7.210;2023-06-10T14:23:42;32.20;84.70
5697;DHT22;2873;50.966;7.210;2023-06-10T14:26:09;32.30;85.20
5697;DHT22;2873;50.966;7.210;2023-06-10T14:28:35;32.60;85.50
5697;DHT22;2873;50.966;7.210;2023-06-10T14:31:01;32.70;82.00
5697;DHT22;2873;50.966;7.210;2023-06-10T14:33:26;32.70;80.60
5697;DHT22;2873;50.966;7.210;2023-06-10T14:35:52;32.70;76.10
5697;DHT22;2873;50.966;7.210;2023-06-10T14:38:18;32.70;77.30
5697;DHT22;2873;50.966;7.210;2023-06-10T14:40:44;32.90;78.80
5697;DHT22;2873;50.966;7.210;2023-06-10T14:43:09;32.70;78.00
5697;DHT22;2873;50.966;7.210;2023-06-10T14:45:44;32.80;80.30
5697;DHT22;2873;50.966;7.210;2023-06-10T14:48:12;33.10;80.90
5697;DHT22;2873;50.966;7.210;2023-06-10T14:50:38;33.20;80.50
5697;DHT22;2873;50.966;7.210;2023-06-10T14:53:06;33.20;79.80
5697;DHT22;2873;50.966;7.210;2023-06-10T14:55:31;33.30;79.60
5697;DHT22;2873;50.966;7.210;2023-06-10T14:57:57;33.30;78.80
5697;DHT22;2873;50.966;7.210;2023-06-10T15:00:23;33.40;79.00
5697;DHT22;2873;50.966;7.210;2023-06-10T15:02:50;33.20;78.50
5697;DHT22;2873;50.966;7.210;2023-06-10T15:05:16;33.20;78.20
5697;DHT22;2873;50.966;7.210;2023-06-10T15:07:43;33.30;78.90
5697;DHT22;2873;50.966;7.210;2023-06-10T15:10:09;33.30;79.30
5697;DHT22;2873;50.966;7.210;2023-06-10T15:12:35;33.30;78.30
5697;DHT22;2873;50.966;7.210;2023-06-10T15:15:01;33.50;80.60
5697;DHT22;2873;50.966;7.210;2023-06-10T15:17:27;33.40;79.00
5697;DHT22;2873;50.966;7.210;2023-06-10T15:19:53;33.50;80.20
5697;DHT22;2873;50.966;7.210;2023-06-10T15:22:18;33.60;78.10
5697;DHT22;2873;50.966;7.210;2023-06-10T15:24:44;33.50;77.20
5697;DHT22;2873;50.966;7.210;2023-06-10T15:27:09;33.50;76.70
5697;DHT22;2873;50.966;7.210;2023-06-10T15:29:35;33.40;74.70
5697;DHT22;2873;50.966;7.210;2023-06-10T15:32:01;33.50;75.80
5697;DHT22;2873;50.966;7.210;2023-06-10T15:34:27;33.40;75.80
5697;DHT22;2873;50.966;7.210;2023-06-10T15:36:52;33.50;74.20
5697;DHT22;2873;50.966;7.210;2023-06-10T15:39:18;33.00;73.10
5697;DHT22;2873;50.966;7.210;2023-06-10T15:41:44;33.00;74.70
5697;DHT22;2873;50.966;7.210;2023-06-10T15:44:10;33.00;75.20
5697;DHT22;2873;50.966;7.210;2023-06-10T15:46:36;33.10;76.60
5697;DHT22;2873;50.966;7.210;2023-06-10T15:49:01;33.30;77.60
5697;DHT22;2873;50.966;7.210;2023-06-10T15:51:28;33.40;79.00
5697;DHT22;2873;50.966;7.210;2023-06-10T15:53:54;33.60;77.50
5697;DHT22;2873;50.966;7.210;2023-06-10T15:56:19;33.60;76.60
5697;DHT22;2873;50.966;7.210;2023-06-10T15:58:46;33.60;77.60
5697;DHT22;2873;50.966;7.210;2023-06-10T16:01:12;33.60;76.60
5697;DHT22;2873;50.966;7.210;2023-06-10T16:03:37;33.60;76.60
5697;DHT22;2873;50.966;7.210;2023-06-10T16:06:03;33.60;77.30
5697;DHT22;2873;50.966;7.210;2023-06-10T16:08:29;33.40;75.90
5697;DHT22;2873;50.966;7.210;2023-06-10T16:10:54;33.50;76.90
5697;DHT22;2873;50.966;7.210;2023-06-10T16:13:20;33.50;75.30